createdAt,value
2023-04-01T00:00:09.603Z,99447.69
2023-04-01T00:02:41.886Z,99440.94
2023-04-01T00:05:14.596Z,99446.03
2023-04-01T00:07:47.335Z,99443.47
2023-04-01T00:10:19.738Z,99443.28
2023-04-01T00:12:52.138Z,99437.16
2023-04-01T00:15:24.630Z,99443.25
2023-04-01T00:17:56.856Z,99438.78
2023-04-01T00:20:30.008Z,99441.34
2023-04-01T00:23:02.509Z,99433.66
2023-04-01T00:25:35.014Z,99431.00
2023-04-01T00:28:07.568Z,99444.09
2023-04-01T00:30:39.844Z,99438.03
2023-04-01T00:33:12.670Z,99434.47
2023-04-01T00:35:45.898Z,99435.28
2023-04-01T00:38:18.231Z,99442.16
2023-04-01T00:40:50.880Z,99437.13
2023-04-01T00:43:23.162Z,99431.03
2023-04-01T00:45:55.476Z,99436.38
2023-04-01T00:48:37.262Z,99439.91
2023-04-01T00:51:17.443Z,99435.50
2023-04-01T00:53:54.113Z,99431.22
2023-04-01T00:56:38.521Z,99436.31
2023-04-01T00:59:21.352Z,99434.03
2023-04-01T01:01:53.557Z,99438.97
2023-04-01T01:04:32.884Z,99440.94
2023-04-01T01:07:36.929Z,99449.59
2023-04-01T01:10:36.410Z,99441.69
2023-04-01T01:13:25.262Z,99440.72
2023-04-01T01:16:19.266Z,99445.91
2023-04-01T01:19:01.668Z,99444.16
2023-04-01T01:22:12.362Z,99434.69
2023-04-01T01:24:54.379Z,99447.56
2023-04-01T01:27:27.673Z,99439.78
2023-04-01T01:30:37.430Z,99442.53
2023-04-01T01:34:00.050Z,99443.34
2023-04-01T01:36:38.283Z,99442.25
2023-04-01T01:39:12.264Z,99439.59
2023-04-01T01:41:48.019Z,99441.31
2023-04-01T01:44:21.306Z,99441.34
2023-04-01T01:46:53.565Z,99440.53
2023-04-01T01:49:26.885Z,99439.56
2023-04-01T01:51:59.362Z,99438.88
2023-04-01T01:54:31.820Z,99442.22
2023-04-01T01:57:11.312Z,99439.78
2023-04-01T01:59:45.683Z,99445.00
2023-04-01T02:02:19.042Z,99446.81
2023-04-01T02:04:52.630Z,99452.06
2023-04-01T02:07:32.859Z,99443.34
2023-04-01T02:10:05.899Z,99454.63
2023-04-01T02:12:39.536Z,99447.66
2023-04-01T02:15:15.716Z,99450.09
2023-04-01T02:17:50.628Z,99451.84
2023-04-01T02:20:25.206Z,99451.81
2023-04-01T02:23:00.866Z,99461.31
2023-04-01T02:25:40.079Z,99462.22
2023-04-01T02:28:14.388Z,99456.19
2023-04-01T02:30:47.265Z,99458.78
2023-04-01T02:33:21.808Z,99457.91
2023-04-01T02:35:54.202Z,99461.53
2023-04-01T02:38:26.578Z,99464.06
2023-04-01T02:41:01.977Z,99458.03
2023-04-01T02:43:34.342Z,99461.88
2023-04-01T02:46:06.697Z,99461.84
2023-04-01T02:48:38.848Z,99460.84
2023-04-01T02:51:11.241Z,99462.47
2023-04-01T02:53:43.412Z,99465.25
2023-04-01T02:56:15.613Z,99460.78
2023-04-01T02:58:48.501Z,99470.28
2023-04-01T03:01:21.032Z,99460.97
2023-04-01T03:04:02.069Z,99467.88
2023-04-01T03:06:34.333Z,99480.72
2023-04-01T03:09:06.418Z,99479.03
2023-04-01T03:11:38.672Z,99479.09
2023-04-01T03:14:10.810Z,99474.66
2023-04-01T03:16:43.057Z,99481.59
2023-04-01T03:19:15.184Z,99479.03
2023-04-01T03:21:47.574Z,99479.03
2023-04-01T03:24:19.730Z,99475.59
2023-04-01T03:26:52.105Z,99482.63
2023-04-01T03:29:24.300Z,99474.91
2023-04-01T03:31:59.060Z,99487.84
2023-04-01T03:34:31.218Z,99484.47
2023-04-01T03:37:04.428Z,99487.16
2023-04-01T03:39:36.581Z,99485.41
2023-04-01T03:42:08.802Z,99490.63
2023-04-01T03:44:41.110Z,99489.72
2023-04-01T03:47:13.238Z,99496.66
2023-04-01T03:49:45.546Z,99492.34
2023-04-01T03:52:17.709Z,99492.34
2023-04-01T03:54:50.206Z,99497.47
2023-04-01T03:57:22.580Z,99500.09
2023-04-01T03:59:54.795Z,99502.66
2023-04-01T04:02:27.146Z,99506.09
2023-04-01T04:04:59.354Z,99505.22
2023-04-01T04:07:31.529Z,99510.47
2023-04-01T04:10:04.452Z,99506.25
2023-04-01T04:12:36.576Z,99507.19
2023-04-01T04:15:09.889Z,99515.84
2023-04-01T04:17:42.613Z,99502.88
2023-04-01T04:20:15.597Z,99513.44
2023-04-01T04:22:47.832Z,99508.22
2023-04-01T04:25:19.973Z,99509.06
2023-04-01T04:27:52.112Z,99517.66
2023-04-01T04:30:24.353Z,99517.03
2023-04-01T04:32:56.772Z,99519.44
2023-04-01T04:35:28.926Z,99522.97
2023-04-01T04:38:01.251Z,99529.19
2023-04-01T04:40:33.339Z,99527.47
2023-04-01T04:43:05.566Z,99523.94
2023-04-01T04:45:37.737Z,99531.03
2023-04-01T04:48:12.248Z,99536.06
2023-04-01T04:50:44.423Z,99537.91
2023-04-01T04:53:19.285Z,99539.59
2023-04-01T04:55:51.795Z,99545.78
2023-04-01T04:58:24.070Z,99541.28
2023-04-01T05:00:56.204Z,99548.31
2023-04-01T05:03:28.505Z,99541.31
2023-04-01T05:06:00.876Z,99541.28
2023-04-01T05:08:34.099Z,99546.38
2023-04-01T05:11:13.772Z,99546.31
2023-04-01T05:13:46.528Z,99552.34
2023-04-01T05:16:21.013Z,99555.81
2023-04-01T05:18:53.285Z,99547.91
2023-04-01T05:21:25.643Z,99554.03
2023-04-01T05:23:57.778Z,99561.81
2023-04-01T05:26:29.958Z,99561.88
2023-04-01T05:29:02.056Z,99563.63
2023-04-01T05:31:34.208Z,99568.78
2023-04-01T05:34:06.435Z,99566.91
2023-04-01T05:36:38.594Z,99567.72
2023-04-01T05:39:10.894Z,99573.03
2023-04-01T05:41:43.033Z,99566.91
2023-04-01T05:44:15.224Z,99568.69
2023-04-01T05:46:47.536Z,99579.16
2023-04-01T05:49:19.667Z,99573.97
2023-04-01T05:51:52.566Z,99579.97
2023-04-01T05:54:25.070Z,99579.88
2023-04-01T05:56:57.340Z,99585.06
2023-04-01T05:59:29.477Z,99591.09
2023-04-01T06:02:02.418Z,99587.47
2023-04-01T06:04:39.621Z,99590.06
2023-04-01T06:07:20.822Z,99596.19
2023-04-01T06:09:52.967Z,99599.66
2023-04-01T06:13:03.369Z,99595.41
2023-04-01T06:15:42.070Z,99598.91
2023-04-01T06:18:32.251Z,99603.97
2023-04-01T06:21:22.642Z,99607.63
2023-04-01T06:24:24.232Z,99606.75
2023-04-01T06:27:24.355Z,99613.81
2023-04-01T06:30:38.130Z,99613.75
2023-04-01T06:33:43.887Z,99618.19
2023-04-01T06:36:49.781Z,99624.28
2023-04-01T06:39:33.954Z,99625.38
2023-04-01T06:42:58.091Z,99627.91
2023-04-01T06:45:39.071Z,99631.38
2023-04-01T06:48:23.770Z,99636.56
2023-04-01T06:51:30.367Z,99638.91
2023-04-01T06:54:48.593Z,99637.84
2023-04-01T06:57:41.309Z,99643.72
2023-04-01T07:00:42.466Z,99648.03
2023-04-01T07:03:22.072Z,99648.84
2023-04-01T07:05:58.411Z,99642.78
2023-04-01T07:08:33.537Z,99657.50
2023-04-01T07:11:08.270Z,99654.28
2023-04-01T07:13:54.992Z,99663.94
2023-04-01T07:16:41.407Z,99650.72
2023-04-01T07:19:41.551Z,99661.91
2023-04-01T07:22:36.447Z,99667.06
2023-04-01T07:25:26.665Z,99668.75
2023-04-01T07:28:07.543Z,99669.63
2023-04-01T07:31:13.624Z,99680.88
2023-04-01T07:34:15.158Z,99686.06
2023-04-01T07:36:56.647Z,99694.75
2023-04-01T07:39:39.562Z,99687.09
2023-04-01T07:42:43.828Z,99696.56
2023-04-01T07:45:53.692Z,99702.00
2023-04-01T07:48:34.178Z,99702.75
2023-04-01T07:51:30.517Z,99710.56
2023-04-01T07:54:45.728Z,99710.50
2023-04-01T07:57:26.557Z,99712.75
2023-04-01T08:00:01.721Z,99714.19
2023-04-01T08:02:44.227Z,99714.94
2023-04-01T08:05:28.660Z,99714.97
2023-04-01T08:08:20.031Z,99714.97
2023-04-01T08:11:14.897Z,99727.03
2023-04-01T08:14:02.112Z,99726.16
2023-04-01T08:17:04.948Z,99732.94
2023-04-01T08:20:12.408Z,99733.94
2023-04-01T08:22:51.144Z,99739.00
2023-04-01T08:25:29.960Z,99746.56
2023-04-01T08:28:42.727Z,99751.50
2023-04-01T08:31:33.355Z,99762.75
2023-04-01T08:34:19.660Z,99758.16
2023-04-01T08:37:02.108Z,99763.38
2023-04-01T08:39:49.975Z,99763.34
2023-04-01T08:42:47.990Z,99769.13
2023-04-01T08:45:54.253Z,99769.94
2023-04-01T08:49:03.177Z,99783.72
2023-04-01T08:51:55.157Z,99787.25
2023-04-01T08:54:54.373Z,99780.66
2023-04-01T08:58:07.605Z,99784.91
2023-04-01T09:00:55.804Z,99789.88
2023-04-01T09:04:20.671Z,99789.69
2023-04-01T09:07:14.446Z,99791.59
2023-04-01T09:10:23.297Z,99793.34
2023-04-01T09:13:20.467Z,99799.78
2023-04-01T09:16:37.135Z,99799.72
2023-04-01T09:19:35.246Z,99803.66
2023-04-01T09:22:13.118Z,99801.56
2023-04-01T09:25:47.161Z,99809.03
2023-04-01T09:28:39.262Z,99812.78
2023-04-01T09:31:55.322Z,99818.53
2023-04-01T09:34:56.878Z,99818.44
2023-04-01T09:37:49.528Z,99819.97
2023-04-01T09:40:46.259Z,99830.72
2023-04-01T09:43:26.661Z,99832.91
2023-04-01T09:46:42.020Z,99837.53
2023-04-01T09:49:57.730Z,99837.25
2023-04-01T09:52:48.747Z,99846.09
2023-04-01T09:56:07.128Z,99848.66
2023-04-01T09:59:08.830Z,99856.63
2023-04-01T10:01:53.911Z,99850.88
2023-04-01T10:04:26.311Z,99856.81
2023-04-01T10:07:42.391Z,99858.44
2023-04-01T10:10:52.678Z,99870.72
2023-04-01T10:14:09.486Z,99871.25
2023-04-01T10:17:12.241Z,99889.44
2023-04-01T10:20:14.357Z,99892.03
2023-04-01T10:23:14.360Z,99899.91
2023-04-01T10:26:15.664Z,99907.53
2023-04-01T10:29:04.289Z,99918.88
2023-04-01T10:32:31.394Z,99914.56
2023-04-01T10:35:44.634Z,99913.09
2023-04-01T10:39:21.211Z,99920.78
2023-04-01T10:42:30.426Z,99928.66
2023-04-01T10:45:37.386Z,99932.28
2023-04-01T10:48:37.845Z,99939.41
2023-04-01T10:51:26.690Z,99947.84
2023-04-01T10:54:42.796Z,99949.06
2023-04-01T10:57:55.615Z,99948.84
2023-04-01T11:00:34.185Z,99948.53
2023-04-01T11:04:09.512Z,99945.47
2023-04-01T11:10:47.003Z,99968.75
2023-04-01T11:13:28.580Z,99968.19
2023-04-01T11:16:19.737Z,99972.22
2023-04-01T11:19:17.781Z,99982.44
2023-04-01T11:22:27.459Z,99983.72
2023-04-01T11:26:09.252Z,99998.44
2023-04-01T11:33:02.362Z,100012.81
2023-04-01T11:35:40.313Z,100020.75
2023-04-01T11:38:34.686Z,100030.69
2023-04-01T11:41:36.307Z,100028.94
2023-04-01T11:44:22.004Z,100036.88
2023-04-01T11:47:20.086Z,100036.00
2023-04-01T11:50:13.845Z,100037.81
2023-04-01T11:53:07.912Z,100044.69
2023-04-01T11:56:48.471Z,100052.69
2023-04-01T12:00:08.623Z,100052.91
2023-04-01T12:03:23.428Z,100055.50
2023-04-01T12:06:45.967Z,100056.81
2023-04-01T12:09:23.826Z,100064.69
2023-04-01T12:12:32.523Z,100068.78
2023-04-01T12:15:42.573Z,100087.31
2023-04-01T12:18:25.616Z,100074.94
2023-04-01T12:21:19.425Z,100080.88
2023-04-01T12:24:09.424Z,100091.28
2023-04-01T12:26:56.859Z,100088.91
2023-04-01T12:30:22.503Z,100098.47
2023-04-01T12:33:15.869Z,100106.34
2023-04-01T12:36:47.635Z,100105.59
2023-04-01T12:40:10.154Z,100110.63
2023-04-01T12:43:16.179Z,100121.91
2023-04-01T12:46:07.264Z,100123.56
2023-04-01T12:49:04.677Z,100129.81
2023-04-01T12:52:32.250Z,100137.47
2023-04-01T12:55:41.689Z,100152.59
2023-04-01T12:59:04.549Z,100159.50
2023-04-01T13:02:12.556Z,100149.03
2023-04-01T13:05:19.150Z,100151.72
2023-04-01T13:08:14.684Z,100161.13
2023-04-01T13:11:11.450Z,100161.91
2023-04-01T13:13:54.679Z,100165.34
2023-04-01T13:16:40.491Z,100171.88
2023-04-01T13:19:29.567Z,100179.94
2023-04-01T13:22:37.227Z,100191.16
2023-04-01T13:25:29.264Z,100193.91
2023-04-01T13:28:25.282Z,100203.75
2023-04-01T13:31:11.831Z,100201.97
2023-04-01T13:34:08.512Z,100210.47
2023-04-01T13:37:20.764Z,100206.97
2023-04-01T13:40:14.278Z,100213.91
2023-04-01T13:42:55.441Z,100220.00
2023-04-01T13:45:49.237Z,100222.75
2023-04-01T13:49:33.149Z,100234.28
2023-04-01T13:52:17.399Z,100244.84
2023-04-01T13:55:07.956Z,100249.31
2023-04-01T13:58:15.074Z,100249.56
2023-04-01T14:05:32.239Z,100262.69
2023-04-01T14:08:44.755Z,100266.97
2023-04-01T14:11:53.801Z,100265.38
2023-04-01T14:14:38.189Z,100276.75
2023-04-01T14:17:49.592Z,100285.53
2023-04-01T14:20:44.711Z,100293.38
2023-04-01T14:23:43.785Z,100294.97
2023-04-01T14:26:40.782Z,100304.53
2023-04-01T14:29:34.134Z,100313.25
2023-04-01T14:32:34.281Z,100307.22
2023-04-01T14:35:28.416Z,100322.97
2023-04-01T14:38:56.582Z,100325.75
2023-04-01T14:41:53.622Z,100336.19
2023-04-01T14:44:58.014Z,100337.03
2023-04-01T14:47:48.351Z,100348.31
2023-04-01T14:50:26.528Z,100341.38
2023-04-01T14:53:32.306Z,100350.00
2023-04-01T14:56:05.308Z,100354.34
2023-04-01T14:58:59.527Z,100356.06
2023-04-01T15:01:51.797Z,100369.09
2023-04-01T15:05:14.753Z,100373.47
2023-04-01T15:08:12.598Z,100382.28
2023-04-01T15:11:12.591Z,100391.03
2023-04-01T15:14:21.810Z,100391.88
2023-04-01T15:17:30.158Z,100396.25
2023-04-01T15:20:49.241Z,100399.66
2023-04-01T15:24:05.197Z,100414.44
2023-04-01T15:27:09.264Z,100409.28
2023-04-01T15:30:14.708Z,100424.09
2023-04-01T15:33:15.339Z,100430.19
2023-04-01T15:36:19.524Z,100431.97
2023-04-01T15:38:56.056Z,100446.75
2023-04-01T15:42:07.361Z,100438.97
2023-04-01T15:45:11.916Z,100445.94
2023-04-01T15:48:14.642Z,100451.97
2023-04-01T15:50:52.340Z,100458.06
2023-04-01T15:53:47.093Z,100459.75
2023-04-01T15:56:42.422Z,100475.38
2023-04-01T16:00:00.010Z,100479.72
2023-04-01T16:02:56.278Z,100478.88
2023-04-01T16:06:04.021Z,100500.59
2023-04-01T16:09:18.996Z,100498.88
2023-04-01T16:12:25.721Z,100512.78
2023-04-01T16:15:39.681Z,100511.94
2023-04-01T16:18:52.334Z,100516.28
2023-04-01T16:21:51.539Z,100531.91
2023-04-01T16:24:45.436Z,100530.16
2023-04-01T16:27:36.030Z,100545.75
2023-04-01T16:30:39.135Z,100535.38
2023-04-01T16:33:32.849Z,100538.81
2023-04-01T16:36:31.732Z,100558.75
2023-04-01T16:39:42.122Z,100555.28
2023-04-01T16:42:23.633Z,100567.44
2023-04-01T16:45:36.976Z,100574.38
2023-04-01T16:48:17.280Z,100573.50
2023-04-01T16:51:06.127Z,100581.31
2023-04-01T16:53:47.335Z,100597.78
2023-04-01T16:56:39.761Z,100601.25
2023-04-01T16:59:11.980Z,100611.66
2023-04-01T17:01:53.371Z,100618.56
2023-04-01T17:04:50.623Z,100619.44
2023-04-01T17:07:42.035Z,100620.28
2023-04-01T17:10:38.953Z,100622.91
2023-04-01T17:13:42.723Z,100634.19
2023-04-01T17:16:42.985Z,100641.13
2023-04-01T17:19:39.772Z,100655.91
2023-04-01T17:22:51.711Z,100671.50
2023-04-01T17:25:50.746Z,100674.97
2023-04-01T17:29:26.292Z,100675.75
2023-04-01T17:32:24.691Z,100688.78
2023-04-01T17:35:53.095Z,100698.22
2023-04-01T17:39:11.693Z,100713.75
2023-04-01T17:42:05.790Z,100712.06
2023-04-01T17:45:27.687Z,100714.72
2023-04-01T17:48:30.649Z,100719.06
2023-04-01T17:51:50.316Z,100732.88
2023-04-01T17:54:56.462Z,100738.97
2023-04-01T17:57:38.024Z,100753.72
2023-04-01T18:00:45.981Z,100755.41
2023-04-01T18:04:02.497Z,100770.13
2023-04-01T18:06:58.169Z,100767.50
2023-04-01T18:10:23.310Z,100774.47
2023-04-01T18:13:21.357Z,100794.41
2023-04-01T18:16:36.620Z,100801.28
2023-04-01T18:19:30.731Z,100816.00
2023-04-01T18:22:21.322Z,100815.13
2023-04-01T18:25:23.664Z,100822.03
2023-04-01T18:28:32.513Z,100828.94
2023-04-01T18:31:20.259Z,100835.84
2023-04-01T18:34:09.454Z,100850.56
2023-04-01T18:37:14.126Z,100855.81
2023-04-01T18:39:59.180Z,100859.25
2023-04-01T18:42:48.497Z,100859.25
2023-04-01T18:45:46.831Z,100867.94
2023-04-01T18:48:54.163Z,100878.34
2023-04-01T18:51:39.330Z,100886.16
2023-04-01T18:54:34.918Z,100893.09
2023-04-01T18:57:15.387Z,100898.28
2023-04-01T19:00:17.297Z,100907.72
2023-04-01T19:03:18.814Z,100914.69
2023-04-01T19:05:55.154Z,100927.66
2023-04-01T19:08:40.283Z,100937.09
2023-04-01T19:12:03.334Z,100937.09
2023-04-01T19:14:44.952Z,100949.09
2023-04-01T19:17:51.046Z,100943.06
2023-04-01T19:21:31.147Z,100954.41
2023-04-01T19:24:42.037Z,100963.16
2023-04-01T19:27:33.696Z,100970.06
2023-04-01T19:30:38.615Z,100968.28
2023-04-01T19:33:51.502Z,100976.84
2023-04-01T19:36:50.567Z,100982.84
2023-04-01T19:40:02.082Z,100998.31
2023-04-01T19:43:15.434Z,100991.44
2023-04-01T19:46:03.823Z,100997.56
2023-04-01T19:48:53.100Z,101012.19
2023-04-01T19:51:43.354Z,101025.16
2023-04-01T19:54:37.365Z,101022.72
2023-04-01T19:57:52.586Z,101026.25
2023-04-01T20:00:34.056Z,101032.34
2023-04-01T20:03:17.315Z,101038.38
2023-04-01T20:06:06.463Z,101051.31
2023-04-01T20:09:09.560Z,101049.63
2023-04-01T20:12:01.733Z,101065.19
2023-04-01T20:14:46.113Z,101062.66
2023-04-01T20:17:39.269Z,101080.59
2023-04-01T20:20:11.970Z,101090.09
2023-04-01T20:23:05.414Z,101086.59
2023-04-01T20:26:08.582Z,101103.00
2023-04-01T20:29:26.239Z,101104.84
2023-04-01T20:32:13.635Z,101118.75
2023-04-01T20:35:23.702Z,101116.03
2023-04-01T20:38:31.401Z,101130.75
2023-04-01T20:41:39.530Z,101130.84
2023-04-01T20:44:50.932Z,101134.22
2023-04-01T20:48:05.794Z,101141.88
2023-04-01T20:50:59.545Z,101143.63
2023-04-01T20:54:31.338Z,101151.31
2023-04-01T20:57:25.017Z,101157.28
2023-04-01T21:00:21.839Z,101160.66
2023-04-01T21:03:32.725Z,101169.53
2023-04-01T21:06:29.175Z,101172.19
2023-04-01T21:09:34.557Z,101184.38
2023-04-01T21:12:42.484Z,101188.59
2023-04-01T21:15:37.109Z,101188.34
2023-04-01T21:19:06.545Z,101202.34
2023-04-01T21:22:17.771Z,101201.25
2023-04-01T21:25:29.857Z,101218.44
2023-04-01T21:28:37.347Z,101222.69
2023-04-01T21:31:31.160Z,101229.75
2023-04-01T21:34:37.181Z,101238.34
2023-04-01T21:37:33.500Z,101244.44
2023-04-01T21:40:20.697Z,101255.22
2023-04-01T21:43:13.336Z,101256.13
2023-04-01T21:46:12.431Z,101273.44
2023-04-01T21:49:28.302Z,101272.88
2023-04-01T21:52:48.113Z,101279.00
2023-04-01T21:56:04.716Z,101285.91
2023-04-01T21:58:44.865Z,101290.19
2023-04-01T22:01:38.403Z,101287.56
2023-04-01T22:04:31.858Z,101307.16
2023-04-01T22:07:19.420Z,101309.28
2023-04-01T22:10:20.173Z,101312.56
2023-04-01T22:13:20.619Z,101311.69
2023-04-01T22:16:19.848Z,101317.44
2023-04-01T22:19:28.306Z,101321.53
2023-04-01T22:22:20.972Z,101336.28
2023-04-01T22:25:21.834Z,101343.88
2023-04-01T22:28:09.237Z,101349.03
2023-04-01T22:30:54.140Z,101350.75
2023-04-01T22:33:44.613Z,101363.72
2023-04-01T22:36:38.936Z,101371.13
2023-04-01T22:40:02.403Z,101384.72
2023-04-01T22:43:16.694Z,101387.31
2023-04-01T22:46:02.222Z,101392.22
2023-04-01T22:49:39.996Z,101403.31
2023-04-01T22:52:41.330Z,101405.09
2023-04-01T22:55:24.842Z,101413.81
2023-04-01T22:58:23.271Z,101416.22
2023-04-01T23:01:07.166Z,101418.81
2023-04-01T23:03:45.793Z,101421.41
2023-04-01T23:06:28.622Z,101422.13
2023-04-01T23:09:35.140Z,101429.59
2023-04-01T23:12:14.541Z,101439.16
2023-04-01T23:14:57.349Z,101443.44
2023-04-01T23:17:54.051Z,101449.34
2023-04-01T23:20:40.280Z,101454.28
2023-04-01T23:23:49.780Z,101457.78
2023-04-01T23:26:56.313Z,101470.81
2023-04-01T23:29:37.255Z,101474.25
2023-04-01T23:32:20.183Z,101478.81
2023-04-01T23:34:55.881Z,101483.63
2023-04-01T23:37:28.898Z,101486.88
2023-04-01T23:40:02.219Z,101503.19
2023-04-01T23:42:42.221Z,101509.19
2023-04-01T23:45:21.136Z,101513.19
2023-04-01T23:47:54.195Z,101511.50
2023-04-01T23:50:29.128Z,101516.63
2023-04-01T23:53:18.285Z,101526.91
2023-04-01T23:55:50.665Z,101533.84
2023-04-01T23:58:28.489Z,101540.16
